createdAt,value
2018-11-29T00:00:25.788Z,53.99
2018-11-29T00:03:00.691Z,53.99
2018-11-29T00:05:35.382Z,54.06
2018-11-29T00:08:10.300Z,53.97
2018-11-29T00:10:47.308Z,54.06
2018-11-29T00:13:20.290Z,53.73
2018-11-29T00:15:54.949Z,53.52
2018-11-29T00:18:29.731Z,53.55
2018-11-29T00:21:04.509Z,53.53
2018-11-29T00:23:39.289Z,53.22
2018-11-29T00:26:13.984Z,53.22
2018-11-29T00:28:48.953Z,53.05
2018-11-29T00:31:23.840Z,52.99
2018-11-29T00:33:58.819Z,52.78
2018-11-29T00:36:33.588Z,52.77
2018-11-29T00:39:09.377Z,52.66
2018-11-29T00:41:44.274Z,52.42
2018-11-29T00:44:17.702Z,52.42
2018-11-29T00:46:52.291Z,52.69
2018-11-29T00:49:25.351Z,52.69
2018-11-29T00:52:00.290Z,51.98
2018-11-29T00:54:33.765Z,51.98
2018-11-29T00:57:08.712Z,52.14
2018-11-29T00:59:43.941Z,52.33
2018-11-29T01:02:18.899Z,52.33
2018-11-29T01:04:54.017Z,52.35
2018-11-29T01:07:28.955Z,52.40
2018-11-29T01:10:04.440Z,52.44
2018-11-29T01:12:39.275Z,52.53
2018-11-29T01:15:19.497Z,52.53
2018-11-29T01:17:53.012Z,52.57
2018-11-29T01:20:28.957Z,52.51
2018-11-29T01:23:03.743Z,52.40
2018-11-29T01:25:44.074Z,52.69
2018-11-29T01:28:18.960Z,52.51
2018-11-29T01:30:55.394Z,52.48
2018-11-29T01:33:30.285Z,52.51
2018-11-29T01:36:04.805Z,52.69
2018-11-29T01:38:39.640Z,52.77
2018-11-29T01:41:14.383Z,52.86
2018-11-29T01:43:49.082Z,52.99
2018-11-29T01:46:23.953Z,52.94
2018-11-29T01:48:58.724Z,52.92
2018-11-29T01:51:33.433Z,53.07
2018-11-29T01:54:08.285Z,52.98
2018-11-29T01:56:40.994Z,52.98
2018-11-29T01:59:16.303Z,53.05
2018-11-29T02:01:51.287Z,52.81
2018-11-29T02:04:26.911Z,53.10
2018-11-29T02:07:01.766Z,52.92
2018-11-29T02:09:37.284Z,52.78
2018-11-29T02:12:12.289Z,52.78
2018-11-29T02:14:47.489Z,52.65
2018-11-29T02:17:21.942Z,52.76
2018-11-29T02:19:57.343Z,52.64
2018-11-29T02:22:31.940Z,52.18
2018-11-29T02:25:06.988Z,52.13
2018-11-29T02:27:41.893Z,52.21
2018-11-29T02:30:25.294Z,52.11
2018-11-29T02:32:59.901Z,52.11
2018-11-29T02:35:33.897Z,52.08
2018-11-29T02:38:08.505Z,52.03
2018-11-29T02:40:47.645Z,51.87
2018-11-29T02:43:22.625Z,51.87
2018-11-29T02:45:57.302Z,51.86
2018-11-29T02:48:30.050Z,51.83
2018-11-29T02:51:02.713Z,51.45
2018-11-29T02:53:37.417Z,51.69
2018-11-29T02:56:12.298Z,51.62
2018-11-29T02:58:44.698Z,51.62
2018-11-29T03:01:19.391Z,51.62
2018-11-29T03:03:53.920Z,51.22
2018-11-29T03:06:28.786Z,50.91
2018-11-29T03:09:04.120Z,50.85
2018-11-29T03:11:38.895Z,50.85
2018-11-29T03:14:13.953Z,50.85
2018-11-29T03:16:48.761Z,50.91
2018-11-29T03:20:55.784Z,50.80
2018-11-29T03:23:30.959Z,50.62
2018-11-29T03:26:05.320Z,50.49
2018-11-29T03:28:39.952Z,50.43
2018-11-29T03:31:14.324Z,50.40
2018-11-29T03:33:48.953Z,50.33
2018-11-29T03:36:23.323Z,50.20
2018-11-29T03:38:55.826Z,50.14
2018-11-29T03:41:30.295Z,49.99
2018-11-29T03:44:02.719Z,50.20
2018-11-29T03:46:37.435Z,50.21
2018-11-29T03:49:12.298Z,50.23
2018-11-29T03:51:46.949Z,50.38
2018-11-29T03:54:22.978Z,50.41
2018-11-29T03:56:57.431Z,50.51
2018-11-29T03:59:32.328Z,50.32
2018-11-29T04:02:06.916Z,50.47
2018-11-29T04:04:41.958Z,50.47
2018-11-29T04:07:16.413Z,50.32
2018-11-29T04:09:51.315Z,50.11
2018-11-29T04:12:25.750Z,50.32
2018-11-29T04:15:00.335Z,50.10
2018-11-29T04:17:33.057Z,50.10
2018-11-29T04:20:08.992Z,50.05
2018-11-29T04:22:43.762Z,50.13
2018-11-29T04:25:19.364Z,50.11
2018-11-29T04:27:52.044Z,50.06
2018-11-29T04:30:27.340Z,50.22
2018-11-29T04:33:01.793Z,50.03
2018-11-29T04:35:36.373Z,50.20
2018-11-29T04:38:11.290Z,50.21
2018-11-29T04:40:49.930Z,50.21
2018-11-29T04:43:24.749Z,50.35
2018-11-29T04:46:54.383Z,50.31
2018-11-29T04:49:29.332Z,50.31
2018-11-29T04:52:03.789Z,50.35
2018-11-29T04:54:39.130Z,50.22
2018-11-29T04:57:13.422Z,50.01
2018-11-29T04:59:46.295Z,50.01
2018-11-29T05:02:19.293Z,50.01
2018-11-29T05:04:52.369Z,50.22
2018-11-29T05:07:26.679Z,50.08
2018-11-29T05:10:01.366Z,50.24
2018-11-29T05:12:36.120Z,50.24
2018-11-29T05:15:13.433Z,50.03
2018-11-29T05:17:47.903Z,49.78
2018-11-29T05:20:22.755Z,49.68
2018-11-29T05:22:57.303Z,49.61
2018-11-29T05:25:32.374Z,49.61
2018-11-29T05:28:07.311Z,49.58
2018-11-29T05:30:45.496Z,49.58
2018-11-29T05:33:20.315Z,49.39
2018-11-29T05:35:54.927Z,49.39
2018-11-29T05:38:29.421Z,49.37
2018-11-29T05:41:03.910Z,49.28
2018-11-29T05:43:38.545Z,49.17
2018-11-29T05:46:12.928Z,48.89
2018-11-29T05:48:47.789Z,48.88
2018-11-29T05:51:22.420Z,48.65
2018-11-29T05:53:57.381Z,48.21
2018-11-29T05:56:32.292Z,48.21
2018-11-29T05:59:05.141Z,48.16
2018-11-29T06:01:42.376Z,47.77
2018-11-29T06:04:17.407Z,47.78
2018-11-29T06:06:52.379Z,47.53
2018-11-29T06:09:27.331Z,47.36
2018-11-29T06:12:02.293Z,47.42
2018-11-29T06:14:38.301Z,47.51
2018-11-29T06:17:13.294Z,47.24
2018-11-29T06:22:13.333Z,46.68
2018-11-29T06:24:46.536Z,46.55
2018-11-29T06:27:21.295Z,46.60
2018-11-29T06:30:10.500Z,46.44
2018-11-29T06:32:45.294Z,46.00
2018-11-29T06:35:20.311Z,46.00
2018-11-29T06:37:53.128Z,46.13
2018-11-29T06:40:28.333Z,45.89
2018-11-29T06:43:03.296Z,45.95
2018-11-29T06:45:38.346Z,45.61
2018-11-29T06:48:13.303Z,45.52
2018-11-29T06:50:49.290Z,45.54
2018-11-29T06:53:40.440Z,45.32
2018-11-29T06:56:14.965Z,45.12
2018-11-29T06:58:51.718Z,44.74
2018-11-29T07:01:25.086Z,44.61
2018-11-29T07:04:00.301Z,44.29
2018-11-29T07:06:34.806Z,44.41
2018-11-29T07:09:11.968Z,44.22
2018-11-29T07:11:45.076Z,43.95
2018-11-29T07:14:20.341Z,43.76
2018-11-29T07:16:55.476Z,43.75
2018-11-29T07:19:30.302Z,43.53
2018-11-29T07:22:06.287Z,43.53
2018-11-29T07:24:41.304Z,43.38
2018-11-29T07:27:16.304Z,43.18
2018-11-29T07:29:49.281Z,42.81
2018-11-29T07:35:09.718Z,42.71
2018-11-29T07:37:44.460Z,42.16
2018-11-29T07:43:20.416Z,42.23
2018-11-29T07:45:55.300Z,42.29
2018-11-29T07:48:28.377Z,42.29
2018-11-29T07:51:03.293Z,42.42
2018-11-29T07:53:37.289Z,42.10
2018-11-29T07:56:11.931Z,42.28
2018-11-29T07:58:51.595Z,42.31
2018-11-29T08:01:22.427Z,42.18
2018-11-29T08:03:57.326Z,41.87
2018-11-29T08:06:32.292Z,41.64
2018-11-29T08:09:05.665Z,41.09
2018-11-29T08:11:38.680Z,41.19
2018-11-29T08:14:13.780Z,41.21
2018-11-29T08:16:48.356Z,41.16
2018-11-29T08:19:21.290Z,41.16
2018-11-29T08:21:56.288Z,40.83
2018-11-29T08:24:29.329Z,40.24
2018-11-29T08:27:04.295Z,40.25
2018-11-29T08:29:37.293Z,40.23
2018-11-29T08:32:12.341Z,39.68
2018-11-29T08:34:47.338Z,39.54
2018-11-29T08:37:20.298Z,39.33
2018-11-29T08:39:53.125Z,38.60
2018-11-29T08:42:28.304Z,38.09
2018-11-29T08:45:03.302Z,37.86
2018-11-29T08:47:38.297Z,37.58
2018-11-29T08:50:17.467Z,36.88
2018-11-29T08:52:50.603Z,35.35
2018-11-29T08:55:25.397Z,33.82
2018-11-29T08:58:00.299Z,31.77
2018-11-29T09:00:36.303Z,31.72
2018-11-29T09:03:36.288Z,32.14
2018-11-29T09:06:11.282Z,31.85
2018-11-29T09:08:44.114Z,31.85
2018-11-29T09:11:19.290Z,31.89
2018-11-29T09:13:52.297Z,31.23
2018-11-29T09:16:27.296Z,30.06
2018-11-29T09:19:00.294Z,29.39
2018-11-29T09:21:35.296Z,29.55
2018-11-29T09:24:08.286Z,29.21
2018-11-29T09:26:43.301Z,29.00
2018-11-29T09:29:16.287Z,29.26
2018-11-29T09:31:51.286Z,28.71
2018-11-29T09:34:24.305Z,29.12
2018-11-29T09:36:59.302Z,28.81
2018-11-29T09:39:32.340Z,27.79
2018-11-29T09:42:07.695Z,27.62
2018-11-29T09:44:42.783Z,27.54
2018-11-29T09:47:15.912Z,27.20
2018-11-29T09:49:50.922Z,28.17
2018-11-29T09:52:25.409Z,28.14
2018-11-29T09:55:00.333Z,28.32
2018-11-29T09:57:35.302Z,28.09
2018-11-29T10:00:11.610Z,28.15
2018-11-29T10:03:05.301Z,28.05
2018-11-29T10:05:40.406Z,28.05
2018-11-29T10:08:17.297Z,27.27
2018-11-29T10:10:54.285Z,27.05
2018-11-29T10:13:27.105Z,27.13
2018-11-29T10:16:01.793Z,26.73
2018-11-29T10:18:37.051Z,26.80
2018-11-29T10:21:12.341Z,26.60
2018-11-29T10:23:47.299Z,26.83
2018-11-29T10:26:22.299Z,26.67
2018-11-29T10:28:55.280Z,26.29
2018-11-29T10:31:30.327Z,25.13
2018-11-29T10:34:03.343Z,25.13
2018-11-29T10:36:37.936Z,25.23
2018-11-29T10:39:13.749Z,25.20
2018-11-29T10:41:46.418Z,25.00
2018-11-29T10:44:22.314Z,24.91
2018-11-29T10:46:57.293Z,24.91
2018-11-29T10:49:32.312Z,25.67
2018-11-29T10:52:07.290Z,25.49
2018-11-29T10:54:41.980Z,25.43
2018-11-29T10:57:19.291Z,24.79
2018-11-29T10:59:52.079Z,24.39
2018-11-29T11:02:30.484Z,24.59
2018-11-29T11:05:05.328Z,24.61
2018-11-29T11:07:38.859Z,23.78
2018-11-29T11:10:13.746Z,22.69
2018-11-29T11:12:48.439Z,21.13
2018-11-29T11:15:23.317Z,21.13
2018-11-29T11:20:45.379Z,20.25
2018-11-29T11:23:18.295Z,20.25
2018-11-29T11:25:53.650Z,20.28
2018-11-29T11:28:28.714Z,20.08
2018-11-29T11:31:03.782Z,20.08
2018-11-29T11:33:38.961Z,19.52
2018-11-29T11:36:14.290Z,19.28
2018-11-29T11:38:48.125Z,19.13
2018-11-29T11:41:22.893Z,19.02
2018-11-29T11:43:57.957Z,19.44
2018-11-29T11:46:32.373Z,19.95
2018-11-29T11:49:05.282Z,20.54
2018-11-29T11:51:40.280Z,20.71
2018-11-29T11:54:15.288Z,21.46
2018-11-29T11:56:50.283Z,21.46
2018-11-29T11:59:23.470Z,22.25
2018-11-29T12:01:58.315Z,22.97
2018-11-29T12:04:31.291Z,22.97
2018-11-29T12:08:17.656Z,23.91
2018-11-29T12:10:54.322Z,23.91
2018-11-29T12:13:32.954Z,22.61
2018-11-29T12:16:08.279Z,22.61
2018-11-29T12:18:43.343Z,21.57
2018-11-29T12:21:18.280Z,20.64
2018-11-29T12:23:56.710Z,19.94
2018-11-29T12:26:31.588Z,18.27
2018-11-29T12:29:06.775Z,18.27
2018-11-29T12:32:03.273Z,18.01
2018-11-29T12:34:38.308Z,17.47
2018-11-29T12:37:13.293Z,17.27
2018-11-29T12:39:48.297Z,17.53
2018-11-29T12:42:23.283Z,16.95
2018-11-29T12:44:57.346Z,16.45
2018-11-29T12:47:30.346Z,16.49
2018-11-29T12:50:05.302Z,16.13
2018-11-29T12:52:39.956Z,16.00
2018-11-29T12:55:16.385Z,16.41
2018-11-29T12:58:04.447Z,16.45
2018-11-29T13:00:26.714Z,16.62
2018-11-29T13:03:02.285Z,16.97
2018-11-29T13:05:40.305Z,17.54
2018-11-29T13:08:15.295Z,18.40
2018-11-29T13:10:56.288Z,19.06
2018-11-29T13:13:31.287Z,19.83
2018-11-29T13:16:05.813Z,20.77
2018-11-29T13:18:41.295Z,21.44
2018-11-29T13:21:16.281Z,22.33
2018-11-29T13:23:49.311Z,22.76
2018-11-29T13:26:24.282Z,23.36
2018-11-29T13:28:59.287Z,23.94
2018-11-29T13:31:34.499Z,24.22
2018-11-29T13:34:09.369Z,24.87
2018-11-29T13:36:44.368Z,25.28
2018-11-29T13:39:17.369Z,25.28
2018-11-29T13:41:52.482Z,25.71
2018-11-29T13:44:27.388Z,25.71
2018-11-29T13:47:02.370Z,26.07
2018-11-29T13:49:37.297Z,26.79
2018-11-29T13:52:12.281Z,26.79
2018-11-29T13:54:45.152Z,27.18
2018-11-29T13:57:20.285Z,27.53
2018-11-29T13:59:53.226Z,27.84
2018-11-29T14:02:27.955Z,28.24
2018-11-29T14:05:02.747Z,28.52
2018-11-29T14:07:37.615Z,29.04
2018-11-29T14:10:19.141Z,29.56
2018-11-29T14:12:53.032Z,30.09
2018-11-29T14:15:29.747Z,30.34
2018-11-29T14:18:04.696Z,30.73
2018-11-29T14:20:39.353Z,31.07
2018-11-29T14:23:14.271Z,31.07
2018-11-29T14:25:51.394Z,31.42
2018-11-29T14:28:26.279Z,31.60
2018-11-29T14:31:02.958Z,31.80
2018-11-29T14:33:39.945Z,32.17
2018-11-29T14:36:14.451Z,32.24
2018-11-29T14:38:49.284Z,32.73
2018-11-29T14:41:24.288Z,32.73
2018-11-29T14:43:57.342Z,32.94
2018-11-29T14:46:32.277Z,33.60
2018-11-29T14:49:05.372Z,33.84
2018-11-29T14:51:48.029Z,34.52
2018-11-29T14:54:15.338Z,34.52
2018-11-29T14:56:50.369Z,34.66
2018-11-29T14:59:25.321Z,34.90
2018-11-29T15:01:59.910Z,35.11
2018-11-29T15:04:34.689Z,36.15
2018-11-29T15:07:09.511Z,36.87
2018-11-29T15:09:44.289Z,36.87
2018-11-29T15:12:18.757Z,37.04
2018-11-29T15:14:53.388Z,37.54
2018-11-29T15:17:28.271Z,37.54
2018-11-29T15:20:01.311Z,38.13
2018-11-29T15:22:36.284Z,38.79
2018-11-29T15:25:11.998Z,39.32
2018-11-29T15:27:46.907Z,39.86
2018-11-29T15:30:23.722Z,40.25
2018-11-29T15:32:58.423Z,40.38
2018-11-29T15:35:31.287Z,40.41
2018-11-29T15:38:06.449Z,40.73
2018-11-29T15:40:41.549Z,40.99
2018-11-29T15:43:16.906Z,41.06
2018-11-29T15:45:53.519Z,41.33
2018-11-29T15:48:28.277Z,41.93
2018-11-29T15:51:03.269Z,41.98
2018-11-29T15:53:36.284Z,41.98
2018-11-29T15:56:12.276Z,42.05
2018-11-29T15:58:45.311Z,42.21
2018-11-29T16:01:20.281Z,42.20
2018-11-29T16:03:53.299Z,42.26
2018-11-29T16:06:28.357Z,42.30
2018-11-29T16:09:01.061Z,42.38
2018-11-29T16:11:36.287Z,42.51
2018-11-29T16:14:09.280Z,42.64
2018-11-29T16:16:44.282Z,42.64
2018-11-29T16:19:19.292Z,42.55
2018-11-29T16:21:54.287Z,42.71
2018-11-29T16:24:29.304Z,42.68
2018-11-29T16:27:03.905Z,42.97
2018-11-29T16:29:39.292Z,42.68
2018-11-29T16:32:19.932Z,42.60
2018-11-29T16:34:54.957Z,42.26
2018-11-29T16:37:29.966Z,42.37
2018-11-29T16:40:04.687Z,42.16
2018-11-29T16:42:39.370Z,42.16
2018-11-29T16:45:14.338Z,41.86
2018-11-29T16:47:51.427Z,41.70
2018-11-29T16:50:26.738Z,41.17
2018-11-29T16:53:01.430Z,41.33
2018-11-29T16:55:34.285Z,41.08
2018-11-29T16:58:18.119Z,41.03
2018-11-29T17:03:38.950Z,40.79
2018-11-29T17:06:13.643Z,40.67
2018-11-29T17:08:48.290Z,40.67
2018-11-29T17:11:23.282Z,40.72
2018-11-29T17:13:56.075Z,40.50
2018-11-29T17:16:30.737Z,40.07
2018-11-29T17:19:05.416Z,39.87
2018-11-29T17:21:40.341Z,39.89
2018-11-29T17:24:14.933Z,39.89
2018-11-29T17:26:47.825Z,39.75
2018-11-29T17:29:22.892Z,39.61
2018-11-29T17:31:57.460Z,39.69
2018-11-29T17:34:32.304Z,39.85
2018-11-29T17:37:06.775Z,39.85
2018-11-29T17:39:41.669Z,39.81
2018-11-29T17:42:14.303Z,39.70
2018-11-29T17:44:47.099Z,39.50
2018-11-29T17:47:21.942Z,39.08
2018-11-29T17:49:57.119Z,39.08
2018-11-29T17:52:31.714Z,39.06
2018-11-29T17:55:06.337Z,38.57
2018-11-29T17:57:39.051Z,38.57
2018-11-29T18:00:36.323Z,38.55
2018-11-29T18:03:10.347Z,38.65
2018-11-29T18:05:47.198Z,38.45
2018-11-29T18:08:22.159Z,38.45
2018-11-29T18:11:03.505Z,38.38
2018-11-29T18:14:21.631Z,38.56
2018-11-29T18:16:56.953Z,38.67
2018-11-29T18:19:31.973Z,38.93
2018-11-29T18:22:08.384Z,38.95
2018-11-29T18:24:43.316Z,39.14
2018-11-29T18:30:00.402Z,39.31
2018-11-29T18:32:35.674Z,39.58
2018-11-29T18:35:11.965Z,39.74
2018-11-29T18:37:46.760Z,39.74
2018-11-29T18:40:24.320Z,39.71
2018-11-29T18:43:03.792Z,39.71
2018-11-29T18:45:38.739Z,39.64
2018-11-29T18:48:15.291Z,39.49
2018-11-29T18:50:52.698Z,39.71
2018-11-29T18:53:27.277Z,39.85
2018-11-29T18:56:02.106Z,39.86
2018-11-29T18:58:36.788Z,40.18
2018-11-29T19:01:11.957Z,40.43
2018-11-29T19:03:46.754Z,40.51
2018-11-29T19:06:21.482Z,40.71
2018-11-29T19:08:56.294Z,41.02
2018-11-29T19:11:30.952Z,41.02
2018-11-29T19:14:05.499Z,41.13
2018-11-29T19:17:38.280Z,41.40
2018-11-29T19:20:15.753Z,41.72
2018-11-29T19:22:50.683Z,41.88
2018-11-29T19:25:26.075Z,41.92
2018-11-29T19:28:00.964Z,41.83
2018-11-29T19:32:17.296Z,42.05
2018-11-29T19:34:50.404Z,42.03
2018-11-29T19:37:25.126Z,42.30
2018-11-29T19:40:01.296Z,42.35
2018-11-29T19:42:36.288Z,42.60
2018-11-29T19:45:10.345Z,42.61
2018-11-29T19:47:43.286Z,43.01
2018-11-29T19:50:27.317Z,43.27
2018-11-29T19:53:03.606Z,43.41
2018-11-29T19:55:37.303Z,43.45
2018-11-29T19:58:10.319Z,43.51
2018-11-29T20:00:49.033Z,43.88
2018-11-29T20:03:23.932Z,43.67
2018-11-29T20:05:58.413Z,44.03
2018-11-29T20:08:33.291Z,43.97
2018-11-29T20:11:08.514Z,43.97
2018-11-29T20:13:43.298Z,44.05
2018-11-29T20:16:18.276Z,44.40
2018-11-29T20:18:51.162Z,45.21
2018-11-29T20:21:25.950Z,44.12
2018-11-29T20:24:00.405Z,44.13
2018-11-29T20:26:35.289Z,44.30
2018-11-29T20:29:08.009Z,44.30
2018-11-29T20:31:42.800Z,44.40
2018-11-29T20:34:18.621Z,44.37
2018-11-29T20:36:53.287Z,44.32
2018-11-29T20:39:26.405Z,44.32
2018-11-29T20:42:01.294Z,44.16
2018-11-29T20:44:34.302Z,44.16
2018-11-29T20:47:09.285Z,44.36
2018-11-29T20:49:42.287Z,44.22
2018-11-29T20:52:16.964Z,44.15
2018-11-29T20:57:49.865Z,44.54
2018-11-29T21:00:24.747Z,44.46
2018-11-29T21:02:59.290Z,44.30
2018-11-29T21:05:34.596Z,44.30
2018-11-29T21:08:10.301Z,44.52
2018-11-29T21:10:45.299Z,44.53
2018-11-29T21:13:18.282Z,44.43
2018-11-29T21:17:21.333Z,44.45
2018-11-29T21:19:54.307Z,44.47
2018-11-29T21:22:27.077Z,44.25
2018-11-29T21:25:02.299Z,44.35
2018-11-29T21:27:36.956Z,44.22
2018-11-29T21:30:20.300Z,44.22
2018-11-29T21:32:53.382Z,44.33
2018-11-29T21:35:26.720Z,44.33
2018-11-29T21:38:01.528Z,44.51
2018-11-29T21:40:35.839Z,44.47
2018-11-29T21:43:10.411Z,44.31
2018-11-29T21:45:47.536Z,44.49
2018-11-29T21:48:22.297Z,44.67
2018-11-29T21:50:59.292Z,44.67
2018-11-29T21:53:32.061Z,44.66
2018-11-29T21:56:06.953Z,44.78
2018-11-29T21:58:41.913Z,44.90
2018-11-29T22:01:16.747Z,44.97
2018-11-29T22:03:51.536Z,44.97
2018-11-29T22:06:24.285Z,44.79
2018-11-29T22:08:56.685Z,44.83
2018-11-29T22:11:31.686Z,44.94
2018-11-29T22:14:06.442Z,44.79
2018-11-29T22:16:43.347Z,45.06
2018-11-29T22:19:18.344Z,44.93
2018-11-29T22:21:53.282Z,44.93
2018-11-29T22:24:26.325Z,44.98
2018-11-29T22:27:01.294Z,45.18
2018-11-29T22:29:35.438Z,45.22
2018-11-29T22:32:10.281Z,45.40
2018-11-29T22:34:43.283Z,45.52
2018-11-29T22:37:17.739Z,45.47
2018-11-29T22:39:52.743Z,45.46
2018-11-29T22:42:25.330Z,45.50
2018-11-29T22:44:58.295Z,45.34
2018-11-29T22:47:31.272Z,45.34
2018-11-29T22:50:06.305Z,45.25
2018-11-29T22:52:41.121Z,44.97
2018-11-29T22:55:16.344Z,44.64
2018-11-29T22:57:48.993Z,44.50
2018-11-29T23:00:24.327Z,44.36
2018-11-29T23:02:57.290Z,44.17
2018-11-29T23:05:32.324Z,43.67
2018-11-29T23:08:07.283Z,43.99
2018-11-29T23:10:45.035Z,43.99
2018-11-29T23:13:19.956Z,44.30
2018-11-29T23:15:54.790Z,44.84
2018-11-29T23:18:29.391Z,44.82
2018-11-29T23:21:04.292Z,44.77
2018-11-29T23:23:37.131Z,44.77
2018-11-29T23:26:12.295Z,45.17
2018-11-29T23:28:45.085Z,45.31
2018-11-29T23:31:19.791Z,45.44
2018-11-29T23:33:54.709Z,45.41
2018-11-29T23:36:29.285Z,45.45
2018-11-29T23:39:02.301Z,45.64
2018-11-29T23:41:37.277Z,45.44
2018-11-29T23:44:10.117Z,45.50
2018-11-29T23:46:45.107Z,45.68
2018-11-29T23:49:20.346Z,46.02
2018-11-29T23:51:55.314Z,45.88
2018-11-29T23:54:28.337Z,45.88
2018-11-29T23:57:02.955Z,45.63
2018-11-29T23:59:39.326Z,45.70
